Station History

Weather Underground - logo

Station Historical Data
Daily Summary for October 24, 2017 Units:  English    Metric   Both
« Previous Day
Next Day »
Daily Weekly Monthly Yearly Custom
  High: Low: Average:
Temperature: 85.5 °F 50.1 °F 65.5 °F
Dew Point: 59.0 °F 46.9 °F 53.5 °F
Humidity: 92 % 36 % 69 %
Wind Speed: 3.5 mph 0.0 mph 0.5 mph
Wind Gust: 3.5 mph - -
Wind:- - West
Pressure: 30.19 in 30.04 in -
Precipitation: 0.00 in    
Historical Graphs
 
 
Tabular Data for October 24, 2017
Time Temperature Dew Point Pressure Wind Wind Speed Wind Gust Humidity Rainfall Rate (Hourly)
00:02 54.3 °F 50.2 °F 30.18 in Calm     86 % 0.00 in
00:07 53.8 °F 50.0 °F 30.18 in Calm     87 % 0.00 in
00:12 53.8 °F 50.3 °F 30.18 in Calm     88 % 0.00 in
00:17 53.9 °F 50.4 °F 30.18 in Calm     88 % 0.00 in
00:22 53.9 °F 50.4 °F 30.18 in Calm     88 % 0.00 in
00:27 53.8 °F 50.3 °F 30.18 in Calm     88 % 0.00 in
00:32 53.7 °F 50.2 °F 30.18 in Calm     88 % 0.00 in
00:37 53.5 °F 50.0 °F 30.18 in Calm     88 % 0.00 in
00:42 53.3 °F 49.8 °F 30.18 in Calm     88 % 0.00 in
00:47 53.0 °F 49.5 °F 30.18 in Calm     88 % 0.00 in
00:52 52.8 °F 49.3 °F 30.18 in Calm     88 % 0.00 in
00:57 52.6 °F 49.1 °F 30.18 in Calm     88 % 0.00 in
01:02 52.5 °F 49.4 °F 30.18 in Calm     89 % 0.00 in
01:07 52.3 °F 49.2 °F 30.18 in Calm     89 % 0.00 in
01:12 52.2 °F 49.1 °F 30.18 in Calm     89 % 0.00 in
01:17 52.0 °F 48.9 °F 30.18 in Calm     89 % 0.00 in
01:22 52.1 °F 49.3 °F 30.18 in Calm     90 % 0.00 in
01:27 52.2 °F 49.4 °F 30.18 in Calm     90 % 0.00 in
01:32 52.2 °F 49.4 °F 30.18 in Calm     90 % 0.00 in
01:37 52.2 °F 49.4 °F 30.18 in Calm     90 % 0.00 in
01:42 52.3 °F 49.2 °F 30.18 in Calm     89 % 0.00 in
01:47 52.2 °F 49.1 °F 30.18 in Calm     89 % 0.00 in
01:52 52.2 °F 49.4 °F 30.18 in Calm     90 % 0.00 in
01:58 52.2 °F 49.4 °F 30.18 in Calm     90 % 0.00 in
02:03 52.3 °F 49.5 °F 30.18 in Calm     90 % 0.00 in
02:08 52.3 °F 49.5 °F 30.18 in Calm     90 % 0.00 in
02:13 52.2 °F 49.4 °F 30.18 in Calm     90 % 0.00 in
02:18 52.1 °F 49.3 °F 30.18 in Calm     90 % 0.00 in
02:23 52.2 °F 49.7 °F 30.18 in Calm     91 % 0.00 in
02:28 52.5 °F 49.9 °F 30.18 in Calm     91 % 0.00 in
02:33 52.9 °F 50.0 °F 30.18 in Calm     90 % 0.00 in
02:38 53.0 °F 49.8 °F 30.18 in Calm     89 % 0.00 in
02:43 52.8 °F 49.3 °F 30.18 in Calm     88 % 0.00 in
02:48 52.9 °F 49.7 °F 30.17 in Calm     89 % 0.00 in
02:53 53.3 °F 50.1 °F 30.17 in Calm     89 % 0.00 in
02:58 53.4 °F 49.9 °F 30.17 in Calm     88 % 0.00 in
03:03 53.3 °F 49.8 °F 30.17 in Calm     88 % 0.00 in
03:08 53.1 °F 49.6 °F 30.17 in Calm     88 % 0.00 in
03:13 53.0 °F 49.5 °F 30.17 in Calm     88 % 0.00 in
03:18 53.0 °F 49.8 °F 30.17 in Calm     89 % 0.00 in
03:23 53.0 °F 49.5 °F 30.17 in Calm     88 % 0.00 in
03:28 53.1 °F 49.9 °F 30.17 in Calm     89 % 0.00 in
03:33 52.7 °F 48.6 °F 30.17 in Calm     86 % 0.00 in
03:38 52.0 °F 47.9 °F 30.17 in Calm     86 % 0.00 in
03:39 51.9 °F 47.8 °F 30.17 in Calm     86 % 0.00 in
03:49 51.1 °F 47.7 °F 30.16 in Calm     88 % 0.00 in
03:54 50.9 °F 47.5 °F 30.16 in Calm     88 % 0.00 in
03:59 50.8 °F 47.7 °F 30.16 in Calm     89 % 0.00 in
04:04 50.6 °F 47.8 °F 30.16 in Calm     90 % 0.00 in
04:09 50.4 °F 47.6 °F 30.16 in Calm     90 % 0.00 in
04:14 50.3 °F 47.5 °F 30.16 in Calm     90 % 0.00 in
04:19 50.3 °F 47.8 °F 30.16 in Calm     91 % 0.00 in
04:24 50.1 °F 47.3 °F 30.16 in Calm     90 % 0.00 in
04:29 50.1 °F 47.6 °F 30.16 in Calm     91 % 0.00 in
04:39 50.2 °F 48.0 °F 30.17 in Calm     92 % 0.00 in
04:44 50.4 °F 48.2 °F 30.16 in Calm     92 % 0.00 in
04:49 50.4 °F 48.2 °F 30.16 in Calm     92 % 0.00 in
04:54 50.4 °F 48.2 °F 30.16 in Calm     92 % 0.00 in
04:59 50.3 °F 47.8 °F 30.17 in Calm     91 % 0.00 in
05:04 50.2 °F 48.0 °F 30.17 in Calm     92 % 0.00 in
05:09 50.5 °F 48.3 °F 30.17 in Calm     92 % 0.00 in
05:15 50.8 °F 48.6 °F 30.17 in Calm     92 % 0.00 in
05:20 51.0 °F 48.5 °F 30.17 in Calm     91 % 0.00 in
05:25 50.9 °F 48.1 °F 30.17 in Calm     90 % 0.00 in
05:30 50.8 °F 48.3 °F 30.17 in Calm     91 % 0.00 in
05:35 50.7 °F 48.2 °F 30.17 in Calm     91 % 0.00 in
05:40 50.5 °F 47.7 °F 30.17 in Calm     90 % 0.00 in
05:45 50.4 °F 47.9 °F 30.17 in Calm     91 % 0.00 in
05:50 50.6 °F 48.1 °F 30.17 in Calm     91 % 0.00 in
05:55 50.8 °F 48.3 °F 30.17 in Calm     91 % 0.00 in
06:00 50.8 °F 48.3 °F 30.17 in Calm     91 % 0.00 in
06:05 50.9 °F 48.1 °F 30.17 in Calm     90 % 0.00 in
06:10 50.8 °F 48.0 °F 30.17 in Calm     90 % 0.00 in
06:15 50.7 °F 47.9 °F 30.17 in Calm     90 % 0.00 in
06:20 50.6 °F 47.8 °F 30.17 in Calm     90 % 0.00 in
06:25 50.9 °F 48.1 °F 30.17 in Calm     90 % 0.00 in
06:30 51.0 °F 48.2 °F 30.17 in Calm     90 % 0.00 in
06:35 51.0 °F 47.9 °F 30.17 in Calm     89 % 0.00 in
06:40 50.9 °F 47.8 °F 30.17 in Calm     89 % 0.00 in
06:45 51.0 °F 47.9 °F 30.17 in Calm     89 % 0.00 in
06:50 50.9 °F 47.8 °F 30.17 in Calm     89 % 0.00 in
06:55 50.9 °F 47.8 °F 30.17 in Calm     89 % 0.00 in
07:00 51.0 °F 47.9 °F 30.17 in Calm     89 % 0.00 in
07:05 51.1 °F 47.7 °F 30.17 in Calm     88 % 0.00 in
07:10 51.0 °F 47.6 °F 30.17 in Calm     88 % 0.00 in
07:15 51.1 °F 47.7 °F 30.17 in Calm     88 % 0.00 in
07:20 51.2 °F 47.8 °F 30.17 in Calm     88 % 0.00 in
07:26 51.4 °F 48.0 °F 30.17 in Calm     88 % 0.00 in
07:36 50.9 °F 47.8 °F 30.17 in Calm     89 % 0.00 in
07:41 50.7 °F 47.3 °F 30.17 in Calm     88 % 0.00 in
07:46 50.3 °F 46.9 °F 30.18 in Calm     88 % 0.00 in
07:51 50.1 °F 47.0 °F 30.17 in Calm     89 % 0.00 in
07:56 50.2 °F 47.4 °F 30.18 in Calm     90 % 0.00 in
08:01 50.4 °F 47.9 °F 30.18 in Calm     91 % 0.00 in
08:06 51.1 °F 48.6 °F 30.18 in Calm     91 % 0.00 in
08:11 51.9 °F 49.1 °F 30.18 in Calm     90 % 0.00 in
08:16 52.9 °F 49.4 °F 30.18 in Calm     88 % 0.00 in
08:21 54.7 °F 50.9 °F 30.19 in Calm     87 % 0.00 in
08:26 55.8 °F 50.7 °F 30.18 in Calm     83 % 0.00 in
08:31 56.5 °F 51.1 °F 30.19 in SW 1.2 mph   82 % 0.00 in
08:36 57.3 °F 51.2 °F 30.19 in Calm     80 % 0.00 in
08:41 58.1 °F 51.3 °F 30.19 in Calm     78 % 0.00 in
08:46 59.0 °F 51.8 °F 30.19 in Calm     77 % 0.00 in
08:51 59.8 °F 52.2 °F 30.19 in Calm     76 % 0.00 in
08:56 60.9 °F 52.9 °F 30.19 in Calm     75 % 0.00 in
09:01 61.6 °F 53.2 °F 30.19 in Calm     74 % 0.00 in
09:06 62.3 °F 53.9 °F 30.19 in Calm     74 % 0.00 in
09:11 63.1 °F 54.7 °F 30.19 in Calm     74 % 0.00 in
09:16 63.9 °F 55.4 °F 30.19 in Calm     74 % 0.00 in
09:21 64.5 °F 54.9 °F 30.19 in Calm     71 % 0.00 in
09:26 65.0 °F 54.6 °F 30.19 in Calm     69 % 0.00 in
09:27 65.1 °F 54.3 °F 30.19 in Calm     68 % 0.00 in
09:32 65.6 °F 54.3 °F 30.19 in West 1.2 mph   67 % 0.00 in
09:37 66.4 °F 55.1 °F 30.19 in Calm     67 % 0.00 in
09:42 66.8 °F 55.1 °F 30.19 in West 1.2 mph 1.2 mph 66 % 0.00 in
09:47 67.3 °F 55.5 °F 30.19 in West 1.0 mph 1.0 mph 66 % 0.00 in
09:52 67.8 °F 55.2 °F 30.19 in WNW 1.2 mph 1.2 mph 64 % 0.00 in
09:57 68.4 °F 55.3 °F 30.19 in Calm     63 % 0.00 in
10:02 68.9 °F 54.9 °F 30.19 in WNW 1.2 mph   61 % 0.00 in
10:07 69.4 °F 54.9 °F 30.19 in Calm     60 % 0.00 in
10:08 69.5 °F 55.5 °F 30.19 in WNW 1.2 mph 1.2 mph 61 % 0.00 in
10:13 70.1 °F 55.6 °F 30.19 in Calm     60 % 0.00 in
10:18 70.6 °F 55.1 °F 30.19 in Calm     58 % 0.00 in
10:23 71.2 °F 55.2 °F 30.19 in Calm     57 % 0.00 in
10:28 71.8 °F 54.8 °F 30.19 in NNW 1.0 mph   55 % 0.00 in
10:33 72.3 °F 54.2 °F 30.19 in Calm     53 % 0.00 in
10:38 72.7 °F 54.1 °F 30.18 in WNW 1.2 mph   52 % 0.00 in
10:43 73.1 °F 54.4 °F 30.18 in WNW 1.2 mph 1.2 mph 52 % 0.00 in
10:48 73.5 °F 54.3 °F 30.18 in NW 1.2 mph   51 % 0.00 in
10:53 74.1 °F 55.3 °F 30.18 in Calm     52 % 0.00 in
10:58 74.4 °F 55.1 °F 30.18 in NW 1.2 mph 1.2 mph 51 % 0.00 in
10:59 74.4 °F 54.5 °F 30.18 in WNW 1.2 mph 1.2 mph 50 % 0.00 in
11:04 74.9 °F 56.1 °F 30.18 in Calm     52 % 0.00 in
11:09 75.5 °F 55.0 °F 30.18 in North 1.2 mph 1.2 mph 49 % 0.00 in
11:14 75.7 °F 54.0 °F 30.17 in WNW 3.5 mph 3.5 mph 47 % 0.00 in
11:19 75.7 °F 54.6 °F 30.17 in NW 1.2 mph 1.2 mph 48 % 0.00 in
11:24 76.2 °F 53.9 °F 30.17 in NW 1.2 mph   46 % 0.00 in
11:29 76.6 °F 54.9 °F 30.17 in WNW 2.3 mph 2.3 mph 47 % 0.00 in
11:34 76.8 °F 54.5 °F 30.17 in NNW 1.0 mph 1.0 mph 46 % 0.00 in
11:39 77.2 °F 54.8 °F 30.17 in West 2.0 mph 2.0 mph 46 % 0.00 in
11:44 77.5 °F 55.7 °F 30.16 in Calm   0.2 mph 47 % 0.00 in
11:49 77.6 °F 54.6 °F 30.16 in Calm     45 % 0.00 in
11:54 77.8 °F 56.0 °F 30.16 in NW 3.5 mph 3.5 mph 47 % 0.00 in
11:59 78.0 °F 55.5 °F 30.16 in WNW 1.2 mph   46 % 0.00 in
12:04 78.3 °F 55.8 °F 30.15 in Calm   0.2 mph 46 % 0.00 in
12:09 78.5 °F 55.4 °F 30.15 in WNW 2.3 mph 2.3 mph 45 % 0.00 in
12:14 78.8 °F 55.7 °F 30.15 in North 1.2 mph 1.2 mph 45 % 0.00 in
12:19 79.0 °F 56.5 °F 30.15 in WNW 2.3 mph 2.3 mph 46 % 0.00 in
12:24 79.3 °F 56.1 °F 30.14 in WNW 1.2 mph 1.2 mph 45 % 0.00 in
12:29 79.7 °F 56.5 °F 30.14 in Calm   0.2 mph 45 % 0.00 in
12:34 80.0 °F 57.4 °F 30.14 in North 3.5 mph 3.5 mph 46 % 0.00 in
12:39 80.1 °F 56.8 °F 30.14 in SE 1.2 mph   45 % 0.00 in
12:44 80.5 °F 56.6 °F 30.13 in Calm     44 % 0.00 in
12:49 80.7 °F 57.4 °F 30.13 in NW 1.2 mph   45 % 0.00 in
12:54 80.7 °F 56.1 °F 30.13 in West 2.3 mph 2.3 mph 43 % 0.00 in
12:59 81.1 °F 57.1 °F 30.12 in West 1.0 mph   44 % 0.00 in
13:04 81.7 °F 58.3 °F 30.12 in NW 1.2 mph   45 % 0.00 in
13:09 81.9 °F 56.6 °F 30.12 in West 2.3 mph 2.3 mph 42 % 0.00 in
13:14 82.0 °F 57.3 °F 30.11 in NW 2.3 mph 2.3 mph 43 % 0.00 in
13:19 82.0 °F 56.6 °F 30.11 in WNW 3.5 mph 3.5 mph 42 % 0.00 in
13:24 82.0 °F 57.3 °F 30.11 in West 2.3 mph 2.3 mph 43 % 0.00 in
13:29 82.2 °F 56.2 °F 30.11 in North 2.3 mph   41 % 0.00 in
13:34 82.8 °F 57.4 °F 30.11 in North 1.2 mph 1.2 mph 42 % 0.00 in
13:39 83.1 °F 56.3 °F 30.10 in SW 1.2 mph 1.2 mph 40 % 0.00 in
13:44 83.2 °F 57.1 °F 30.10 in SW 1.2 mph 1.2 mph 41 % 0.00 in
13:49 83.1 °F 56.3 °F 30.10 in NNE 3.5 mph 3.5 mph 40 % 0.00 in
13:54 83.2 °F 56.4 °F 30.10 in NW 3.5 mph   40 % 0.00 in
13:59 83.4 °F 56.5 °F 30.10 in NW 1.2 mph 1.2 mph 40 % 0.00 in
14:04 83.7 °F 55.4 °F 30.09 in NNW 2.3 mph 2.3 mph 38 % 0.00 in
14:09 83.7 °F 56.1 °F 30.09 in NW 2.3 mph 2.3 mph 39 % 0.00 in
14:14 83.7 °F 56.1 °F 30.09 in Calm     39 % 0.00 in
14:24 83.9 °F 56.3 °F 30.08 in West 1.2 mph 1.2 mph 39 % 0.00 in
14:29 84.3 °F 55.9 °F 30.08 in NW 2.3 mph 2.3 mph 38 % 0.00 in
14:34 84.3 °F 55.2 °F 30.08 in West 2.3 mph 2.3 mph 37 % 0.00 in
14:39 84.5 °F 55.4 °F 30.08 in NW 3.5 mph 3.5 mph 37 % 0.00 in
14:44 84.8 °F 56.4 °F 30.08 in NW 1.2 mph 1.2 mph 38 % 0.00 in
14:49 84.9 °F 55.7 °F 30.07 in NW 2.3 mph 2.3 mph 37 % 0.00 in
14:54 85.0 °F 55.8 °F 30.07 in NW 1.2 mph 1.2 mph 37 % 0.00 in
14:59 85.1 °F 55.9 °F 30.07 in North 3.5 mph 3.5 mph 37 % 0.00 in
15:04 85.1 °F 55.1 °F 30.07 in WNW 1.2 mph 1.2 mph 36 % 0.00 in
15:09 85.1 °F 55.1 °F 30.07 in NW 2.3 mph 2.3 mph 36 % 0.00 in
15:14 85.2 °F 56.7 °F 30.07 in WNW 3.0 mph 3.0 mph 38 % 0.00 in
15:19 85.2 °F 56.7 °F 30.06 in NW 1.2 mph 1.2 mph 38 % 0.00 in
15:24 85.4 °F 56.9 °F 30.06 in North 3.5 mph 3.5 mph 38 % 0.00 in
15:29 85.4 °F 56.2 °F 30.06 in NW 2.3 mph 2.3 mph 37 % 0.00 in
15:34 85.5 °F 55.5 °F 30.06 in WNW 3.5 mph 3.5 mph 36 % 0.00 in
15:39 85.4 °F 55.4 °F 30.06 in WNW 2.3 mph 2.3 mph 36 % 0.00 in
15:44 85.4 °F 56.9 °F 30.06 in WNW 2.3 mph 2.3 mph 38 % 0.00 in
15:49 85.2 °F 57.4 °F 30.06 in WNW 2.3 mph 2.3 mph 39 % 0.00 in
15:55 85.1 °F 56.6 °F 30.06 in NW 1.2 mph 1.2 mph 38 % 0.00 in
16:00 85.0 °F 58.0 °F 30.06 in NW 2.3 mph 2.3 mph 40 % 0.00 in
16:05 85.0 °F 58.0 °F 30.06 in NW 3.0 mph 3.0 mph 40 % 0.00 in
16:10 84.8 °F 56.4 °F 30.05 in NW 2.3 mph 2.3 mph 38 % 0.00 in
16:15 84.7 °F 56.3 °F 30.06 in NW 1.2 mph 1.2 mph 38 % 0.00 in
16:20 84.7 °F 57.7 °F 30.06 in WNW 1.2 mph   40 % 0.00 in
16:25 84.6 °F 56.9 °F 30.05 in NW 2.3 mph 2.3 mph 39 % 0.00 in
16:30 84.5 °F 56.8 °F 30.05 in West 1.2 mph 1.2 mph 39 % 0.00 in
16:35 84.3 °F 58.0 °F 30.05 in NW 1.2 mph   41 % 0.00 in
16:40 84.2 °F 56.6 °F 30.05 in NW 1.2 mph 1.2 mph 39 % 0.00 in
16:45 84.1 °F 57.2 °F 30.05 in NW 1.2 mph 1.2 mph 40 % 0.00 in
16:50 83.9 °F 57.0 °F 30.05 in NW 1.2 mph 1.2 mph 40 % 0.00 in
16:55 83.7 °F 57.5 °F 30.05 in NW 1.2 mph 1.2 mph 41 % 0.00 in
17:00 83.5 °F 57.3 °F 30.05 in Calm     41 % 0.00 in
17:05 83.3 °F 57.8 °F 30.05 in WNW 1.2 mph 1.2 mph 42 % 0.00 in
17:10 83.1 °F 57.6 °F 30.05 in WNW 1.2 mph   42 % 0.00 in
17:15 82.9 °F 56.8 °F 30.05 in Calm     41 % 0.00 in
17:20 82.6 °F 56.5 °F 30.05 in Calm     41 % 0.00 in
17:25 82.4 °F 56.3 °F 30.05 in Calm     41 % 0.00 in
17:30 82.1 °F 56.7 °F 30.05 in Calm     42 % 0.00 in
17:35 81.6 °F 56.9 °F 30.05 in Calm     43 % 0.00 in
17:40 80.9 °F 57.6 °F 30.05 in Calm     45 % 0.00 in
17:45 80.1 °F 58.0 °F 30.05 in Calm     47 % 0.00 in
17:50 79.2 °F 59.0 °F 30.05 in Calm     50 % 0.00 in
17:55 78.2 °F 58.0 °F 30.05 in Calm     50 % 0.00 in
18:00 77.4 °F 58.4 °F 30.05 in Calm     52 % 0.00 in
18:05 76.4 °F 59.0 °F 30.05 in Calm     55 % 0.00 in
18:10 75.6 °F 58.3 °F 30.05 in Calm     55 % 0.00 in
18:15 75.0 °F 58.7 °F 30.05 in Calm     57 % 0.00 in
18:20 74.5 °F 58.8 °F 30.05 in Calm     58 % 0.00 in
18:25 73.9 °F 58.7 °F 30.05 in Calm     59 % 0.00 in
18:30 73.5 °F 58.8 °F 30.05 in Calm     60 % 0.00 in
18:40 72.5 °F 58.7 °F 30.05 in Calm     62 % 0.00 in
18:45 71.9 °F 58.6 °F 30.05 in Calm     63 % 0.00 in
18:50 71.4 °F 58.6 °F 30.05 in Calm     64 % 0.00 in
18:55 70.8 °F 58.4 °F 30.05 in Calm     65 % 0.00 in
19:00 70.5 °F 58.6 °F 30.05 in Calm     66 % 0.00 in
19:05 70.4 °F 58.5 °F 30.05 in Calm     66 % 0.00 in
19:10 70.1 °F 57.8 °F 30.05 in Calm     65 % 0.00 in
19:15 69.8 °F 57.9 °F 30.05 in Calm     66 % 0.00 in
19:20 69.6 °F 58.2 °F 30.05 in Calm     67 % 0.00 in
19:25 69.4 °F 58.0 °F 30.05 in Calm     67 % 0.00 in
19:30 69.2 °F 58.2 °F 30.05 in Calm     68 % 0.00 in
19:35 68.7 °F 57.7 °F 30.05 in Calm     68 % 0.00 in
19:40 68.5 °F 58.3 °F 30.05 in Calm     70 % 0.00 in
19:45 68.3 °F 58.1 °F 30.05 in Calm     70 % 0.00 in
19:50 68.0 °F 57.8 °F 30.05 in Calm     70 % 0.00 in
19:55 67.8 °F 57.3 °F 30.05 in Calm     69 % 0.00 in
20:00 67.8 °F 57.3 °F 30.05 in Calm     69 % 0.00 in
20:05 67.6 °F 57.5 °F 30.05 in Calm     70 % 0.00 in
20:10 67.3 °F 57.6 °F 30.05 in Calm     71 % 0.00 in
20:15 67.0 °F 57.7 °F 30.05 in Calm     72 % 0.00 in
20:20 66.6 °F 57.7 °F 30.05 in Calm     73 % 0.00 in
20:25 66.2 °F 57.7 °F 30.05 in Calm     74 % 0.00 in
20:30 65.8 °F 57.7 °F 30.05 in Calm     75 % 0.00 in
20:36 65.6 °F 57.5 °F 30.04 in Calm     75 % 0.00 in
20:40 65.3 °F 57.5 °F 30.05 in Calm     76 % 0.00 in
20:46 65.0 °F 56.9 °F 30.05 in Calm     75 % 0.00 in
20:51 64.9 °F 57.5 °F 30.05 in Calm     77 % 0.00 in
20:56 64.3 °F 56.9 °F 30.05 in Calm     77 % 0.00 in
21:01 63.7 °F 56.7 °F 30.05 in Calm     78 % 0.00 in
21:06 63.3 °F 56.7 °F 30.05 in Calm     79 % 0.00 in
21:11 62.9 °F 56.6 °F 30.05 in Calm     80 % 0.00 in
21:16 62.6 °F 56.3 °F 30.05 in Calm     80 % 0.00 in
21:21 62.3 °F 56.4 °F 30.05 in Calm     81 % 0.00 in
21:26 62.2 °F 56.3 °F 30.05 in Calm     81 % 0.00 in
21:31 62.0 °F 56.1 °F 30.06 in Calm     81 % 0.00 in
21:36 61.5 °F 56.0 °F 30.06 in Calm     82 % 0.00 in
21:41 61.3 °F 56.1 °F 30.06 in Calm     83 % 0.00 in
21:46 61.1 °F 55.9 °F 30.06 in Calm     83 % 0.00 in
21:51 61.3 °F 55.8 °F 30.06 in WNW 1.0 mph   82 % 0.00 in
21:56 61.2 °F 55.7 °F 30.06 in Calm     82 % 0.00 in
22:01 60.9 °F 55.4 °F 30.06 in Calm     82 % 0.00 in
22:06 60.6 °F 55.4 °F 30.06 in Calm     83 % 0.00 in
22:11 60.1 °F 54.9 °F 30.06 in SE 1.2 mph 1.2 mph 83 % 0.00 in
22:16 59.5 °F 54.7 °F 30.07 in ESE 1.0 mph   84 % 0.00 in
22:21 59.4 °F 54.6 °F 30.07 in Calm     84 % 0.00 in
22:26 59.2 °F 54.7 °F 30.07 in Calm     85 % 0.00 in
22:31 59.1 °F 54.6 °F 30.06 in Calm     85 % 0.00 in
22:36 59.1 °F 54.6 °F 30.06 in Calm     85 % 0.00 in
22:41 59.3 °F 54.5 °F 30.06 in Calm     84 % 0.00 in
22:46 59.4 °F 53.9 °F 30.06 in Calm     82 % 0.00 in
22:51 59.3 °F 53.8 °F 30.06 in Calm     82 % 0.00 in
22:56 59.3 °F 53.5 °F 30.06 in ESE 1.2 mph   81 % 0.00 in
23:01 59.3 °F 53.5 °F 30.06 in ESE 1.2 mph 1.2 mph 81 % 0.00 in
23:06 59.4 °F 53.2 °F 30.06 in Calm     80 % 0.00 in
23:11 59.5 °F 53.3 °F 30.06 in Calm     80 % 0.00 in
23:16 59.7 °F 53.5 °F 30.05 in Calm     80 % 0.00 in
23:21 60.0 °F 53.8 °F 30.05 in Calm     80 % 0.00 in
23:26 60.3 °F 53.8 °F 30.05 in Calm     79 % 0.00 in
23:31 60.6 °F 53.7 °F 30.05 in Calm     78 % 0.00 in
23:36 60.9 °F 53.6 °F 30.05 in Calm     77 % 0.00 in
23:41 61.2 °F 53.6 °F 30.05 in Calm     76 % 0.00 in
23:46 61.5 °F 53.5 °F 30.05 in Calm     75 % 0.00 in
23:51 62.0 °F 53.6 °F 30.05 in Calm     74 % 0.00 in
23:56 62.2 °F 53.4 °F 30.05 in Calm     73 % 0.00 in
Park Place, Exeter, Tulare County, California, USA
Compliments of Weather Underground - 2.75 mb